Time;durP1;ratioP1;P1;durP2;ratioP2;P2;SDS_P1;SDS_P2;PMS_P1;PMS_P2;Temp;Humidity;BMP_temperature;BMP_pressure;BME280_temperature;BME280_humidity;BME280_pressure;Samples;Min_cycle;Max_cycle;Signal;HPM_P1;HPM_P2
2023/09/18 00:01:59;;;;;;;;;;;;;;;20.31;68.28;97550.13;5029527;28;20433;-61
2023/09/18 00:04:27;;;;;;;;;;;;;;;20.31;68.24;97555.66;5008845;28;19929;-61
2023/09/18 00:06:56;;;;;;;;;;;;;;;20.29;68.31;97552.47;5029985;28;19928;-61
2023/09/18 00:09:24;;;;;;;;;;;;;;;20.27;68.29;97555.63;5028841;28;20004;-61
2023/09/18 00:11:52;;;;;;;;;;;;;;;20.27;68.35;97555.63;5021485;28;19970;-61
2023/09/18 00:14:20;;;;;;;;;;;;;;;20.26;68.01;97558.75;5026979;28;19936;-61
2023/09/18 00:16:48;;;;;;;;;;;;;;;20.25;68.25;97557.97;5025088;28;20378;-61
2023/09/18 00:19:25;;;;;;;;;;;;;;;20.22;68.37;97555.19;5019897;28;19933;-61
2023/09/18 00:21:54;;;;;;;;;;;;;;;20.20;68.70;97544.53;5026635;28;20492;-61
2023/09/18 00:24:25;;;;;;;;;;;;;;;20.18;68.50;97546.88;5026225;28;19925;-61
2023/09/18 00:26:52;;;;;;;;;;;;;;;20.17;68.64;97542.53;5022169;28;19944;-61
2023/09/18 00:29:20;;;;;;;;;;;;;;;20.17;68.59;97533.47;5025421;28;19932;-61
2023/09/18 00:31:49;;;;;;;;;;;;;;;20.13;68.48;97528.75;5028339;28;19932;-61
2023/09/18 00:34:17;;;;;;;;;;;;;;;20.11;68.64;97525.56;5029796;28;19944;-62
2023/09/18 00:36:47;;;;;;;;;;;;;;;20.12;68.46;97527.13;5009809;28;19925;-61
2023/09/18 00:39:15;;;;;;;;;;;;;;;20.11;68.35;97519.25;5008930;28;19940;-61
2023/09/18 00:41:49;;;;;;;;;;;;;;;20.12;68.35;97518.06;5028917;28;19929;-60
2023/09/18 00:44:17;;;;;;;;;;;;;;;20.08;68.39;97514.50;5025747;28;20015;-61
2023/09/18 00:46:44;;;;;;;;;;;;;;;20.07;68.08;97507.41;5007402;28;19933;-60
2023/09/18 00:49:12;;;;;;;;;;;;;;;20.07;68.09;97510.16;5027557;28;19929;-61
2023/09/18 00:51:40;;;;;;;;;;;;;;;20.05;68.32;97504.25;5025246;28;19929;-62
2023/09/18 00:54:07;;;;;;;;;;;;;;;20.02;68.27;97500.28;5027725;28;20379;-61
2023/09/18 00:56:35;;;;;;;;;;;;;;;20.01;68.30;97497.91;5029107;28;19929;-61
2023/09/18 00:59:06;;;;;;;;;;;;;;;19.99;68.14;97497.50;5027387;28;19931;-66
2023/09/18 01:01:34;;;;;;;;;;;;;;;19.98;68.25;97493.19;5023922;28;19980;-61
2023/09/18 01:04:02;;;;;;;;;;;;;;;19.97;67.87;97489.59;5008995;28;19929;-61
2023/09/18 01:06:30;;;;;;;;;;;;;;;19.98;67.94;97488.44;5028255;28;19987;-61
2023/09/18 01:08:59;;;;;;;;;;;;;;;19.97;67.70;97480.53;5026998;28;19925;-61
2023/09/18 01:11:29;;;;;;;;;;;;;;;19.96;67.77;97487.25;5027893;28;20294;-61
2023/09/18 01:14:00;;;;;;;;;;;;;;;19.95;67.50;97482.91;5009444;28;20312;-61
2023/09/18 01:16:31;;;;;;;;;;;;;;;19.93;67.70;97479.75;5021899;28;20461;-61
2023/09/18 01:18:59;;;;;;;;;;;;;;;19.93;67.27;97477.00;5021779;28;19938;-61
2023/09/18 01:21:27;;;;;;;;;;;;;;;19.91;67.49;97474.59;5000901;28;19929;-61
2023/09/18 01:23:57;;;;;;;;;;;;;;;19.88;67.32;97478.94;5022195;28;20020;-61
2023/09/18 01:26:24;;;;;;;;;;;;;;;19.84;67.35;97478.09;5025360;28;20286;-61
2023/09/18 01:28:52;;;;;;;;;;;;;;;19.85;67.28;97479.69;5012247;28;20291;-61
2023/09/18 01:31:20;;;;;;;;;;;;;;;19.82;67.33;97474.94;5006898;28;19933;-61
2023/09/18 01:33:48;;;;;;;;;;;;;;;19.81;67.23;97473.34;5026479;28;19925;-61
2023/09/18 01:36:16;;;;;;;;;;;;;;;19.75;67.28;97469.38;5009620;28;19939;-61
2023/09/18 01:38:43;;;;;;;;;;;;;;;19.76;67.28;97459.13;5027518;28;19925;-61
2023/09/18 01:41:14;;;;;;;;;;;;;;;19.73;67.30;97460.69;5029873;28;19971;-61
2023/09/18 01:43:42;;;;;;;;;;;;;;;19.70;67.51;97458.69;5029809;28;20367;-60
2023/09/18 01:46:09;;;;;;;;;;;;;;;19.68;67.41;97463.81;5031610;28;19929;-61
2023/09/18 01:48:37;;;;;;;;;;;;;;;19.69;67.43;97464.59;5029150;28;19929;-61
2023/09/18 01:51:05;;;;;;;;;;;;;;;19.65;67.47;97464.56;5026323;28;19933;-61
2023/09/18 01:53:33;;;;;;;;;;;;;;;19.63;67.36;97466.91;5031058;28;19940;-60
2023/09/18 01:56:00;;;;;;;;;;;;;;;19.62;67.47;97470.84;5030096;28;19933;-61
2023/09/18 01:58:30;;;;;;;;;;;;;;;19.62;67.48;97462.59;5012066;28;19929;-61
2023/09/18 02:01:01;;;;;;;;;;;;;;;19.62;67.48;97457.06;5015916;28;19940;-61
2023/09/18 02:06:29;;;;;;;;;;;;;;;19.56;67.85;97466.84;5027679;28;20300;-61
2023/09/18 02:08:58;;;;;;;;;;;;;;;19.56;67.70;97466.84;5029080;28;19933;-61
2023/09/18 02:11:25;;;;;;;;;;;;;;;19.57;67.75;97458.19;5004923;28;19925;-61
2023/09/18 02:13:57;;;;;;;;;;;;;;;19.56;67.58;97444.78;5009745;28;21405;-61
2023/09/18 02:16:26;;;;;;;;;;;;;;;19.54;67.81;97442.41;5029442;28;19932;-61
2023/09/18 02:18:55;;;;;;;;;;;;;;;19.50;67.98;97440.81;5028834;28;19983;-61
2023/09/18 02:21:24;;;;;;;;;;;;;;;19.49;67.85;97444.72;5024385;28;20336;-60
2023/09/18 02:23:51;;;;;;;;;;;;;;;19.49;67.89;97442.75;5009174;28;20263;-60
2023/09/18 02:26:19;;;;;;;;;;;;;;;19.50;67.78;97435.31;5008029;28;20364;-61
2023/09/18 02:28:47;;;;;;;;;;;;;;;19.46;67.96;97435.28;5013249;28;19925;-61
2023/09/18 02:31:16;;;;;;;;;;;;;;;19.43;67.94;97430.50;5030991;28;19976;-61
2023/09/18 02:33:44;;;;;;;;;;;;;;;19.45;67.84;97433.69;5031167;28;19929;-61
2023/09/18 02:36:12;;;;;;;;;;;;;;;19.45;67.81;97424.63;5031057;28;19929;-61
2023/09/18 02:38:40;;;;;;;;;;;;;;;19.45;67.89;97424.63;5030809;28;19936;-61
2023/09/18 02:41:07;;;;;;;;;;;;;;;19.47;67.73;97425.03;5027649;28;20268;-61
2023/09/18 02:43:37;;;;;;;;;;;;;;;19.47;67.75;97419.53;5030685;28;20274;-61
2023/09/18 02:46:05;;;;;;;;;;;;;;;19.46;67.82;97410.47;5013655;28;20329;-61
2023/09/18 02:48:34;;;;;;;;;;;;;;;19.46;67.82;97421.50;5005867;28;20338;-61
2023/09/18 02:51:03;;;;;;;;;;;;;;;19.46;67.97;97423.47;5010471;28;19983;-61
2023/09/18 02:53:30;;;;;;;;;;;;;;;19.45;67.86;97421.88;5029491;28;19926;-62
2023/09/18 02:55:59;;;;;;;;;;;;;;;19.45;67.87;97422.66;5030080;28;20446;-61
2023/09/18 02:58:29;;;;;;;;;;;;;;;19.44;67.97;97420.28;5028499;28;19929;-61
2023/09/18 03:00:57;;;;;;;;;;;;;;;19.42;68.05;97411.63;5012374;28;19925;-61
2023/09/18 03:03:25;;;;;;;;;;;;;;;19.41;68.01;97410.81;5026997;28;20294;-61
2023/09/18 03:05:54;;;;;;;;;;;;;;;19.43;68.06;97413.19;5007349;28;19932;-62
2023/09/18 03:08:22;;;;;;;;;;;;;;;19.42;68.14;97411.63;5011950;28;19968;-61
2023/09/18 03:10:50;;;;;;;;;;;;;;;19.40;68.00;97403.75;5030485;28;19932;-62
2023/09/18 03:13:18;;;;;;;;;;;;;;;19.41;68.01;97405.31;5013325;28;19925;-62
2023/09/18 03:15:47;;;;;;;;;;;;;;;19.41;68.13;97393.50;5019998;28;19936;-61
2023/09/18 03:18:15;;;;;;;;;;;;;;;19.38;68.09;97389.53;5004202;28;19949;-62
2023/09/18 03:20:43;;;;;;;;;;;;;;;19.37;68.10;97394.25;5007590;28;19928;-61
2023/09/18 03:23:12;;;;;;;;;;;;;;;19.35;68.20;97385.59;5013317;28;20394;-63
2023/09/18 03:25:40;;;;;;;;;;;;;;;19.33;68.42;97374.19;5007410;28;19925;-61
2023/09/18 03:28:16;;;;;;;;;;;;;;;19.32;68.51;97374.53;5024110;28;19932;-62
2023/09/18 03:30:44;;;;;;;;;;;;;;;19.31;68.58;97364.72;5010392;28;19933;-61
2023/09/18 03:33:12;;;;;;;;;;;;;;;19.31;68.51;97367.47;5028627;28;19925;-61
2023/09/18 03:35:47;;;;;;;;;;;;;;;19.32;68.57;97369.81;5026897;28;19978;-61
2023/09/18 03:38:18;;;;;;;;;;;;;;;19.30;68.64;97358.41;5006079;28;20398;-61
2023/09/18 03:40:46;;;;;;;;;;;;;;;19.30;68.66;97361.16;5029340;28;19928;-62
2023/09/18 03:43:14;;;;;;;;;;;;;;;19.30;68.74;97361.16;5012196;28;20046;-61
2023/09/18 03:45:42;;;;;;;;;;;;;;;19.29;68.79;97362.34;5009865;28;19929;-61
2023/09/18 03:48:10;;;;;;;;;;;;;;;19.28;69.06;97352.50;5006344;28;19937;-61
2023/09/18 03:50:38;;;;;;;;;;;;;;;19.27;69.07;97355.63;5027188;28;20079;-61
2023/09/18 03:53:06;;;;;;;;;;;;;;;19.22;69.07;97337.47;5012693;28;19925;-61
2023/09/18 03:55:36;;;;;;;;;;;;;;;19.17;69.58;97337.84;5011508;28;19931;-61
2023/09/18 03:58:04;;;;;;;;;;;;;;;19.15;69.54;97333.91;5030041;28;19937;-62
2023/09/18 04:00:32;;;;;;;;;;;;;;;19.13;69.60;97330.75;5008141;28;20353;-61
2023/09/18 04:03:00;;;;;;;;;;;;;;;19.13;69.61;97331.53;5027347;28;19932;-66
2023/09/18 04:05:28;;;;;;;;;;;;;;;19.11;69.62;97342.91;5024867;28;19935;-61
2023/09/18 04:07:57;;;;;;;;;;;;;;;19.05;69.76;97354.66;5013601;28;19925;-61
2023/09/18 04:10:25;;;;;;;;;;;;;;;19.06;69.67;97356.22;5022385;28;19929;-61
2023/09/18 04:12:54;;;;;;;;;;;;;;;19.09;69.68;97349.97;5008439;28;19978;-61
2023/09/18 04:15:23;;;;;;;;;;;;;;;19.11;69.64;97344.88;5025356;28;20026;-61
2023/09/18 04:17:51;;;;;;;;;;;;;;;19.13;69.51;97342.53;5009810;28;19982;-61
2023/09/18 04:20:19;;;;;;;;;;;;;;;19.14;69.61;97340.59;5019798;28;20374;-61
2023/09/18 04:22:49;;;;;;;;;;;;;;;19.15;69.62;97347.66;5023186;28;19929;-61
2023/09/18 04:25:18;;;;;;;;;;;;;;;19.14;69.54;97344.13;5007510;28;20298;-61
2023/09/18 04:27:49;;;;;;;;;;;;;;;19.17;69.58;97351.59;5006868;28;19925;-61
2023/09/18 04:30:19;;;;;;;;;;;;;;;19.13;69.88;97350.81;5019777;28;19925;-62
2023/09/18 04:32:51;;;;;;;;;;;;;;;19.04;69.69;97369.59;5011670;28;19932;-61
2023/09/18 04:35:20;;;;;;;;;;;;;;;18.96;70.48;97385.28;5027047;28;20400;-61
2023/09/18 04:37:48;;;;;;;;;;;;;;;18.92;71.05;97361.63;5008553;28;19926;-61
2023/09/18 04:40:15;;;;;;;;;;;;;;;18.88;71.53;97352.53;5008043;28;19925;-61
2023/09/18 04:42:43;;;;;;;;;;;;;;;18.86;71.46;97363.94;5026732;28;20383;-61
2023/09/18 04:45:11;;;;;;;;;;;;;;;18.86;71.98;97336.41;5007477;28;20039;-62
2023/09/18 04:47:40;;;;;;;;;;;;;;;18.87;71.81;97323.44;5007666;28;20043;-61
2023/09/18 04:50:09;;;;;;;;;;;;;;;18.89;71.76;97315.59;5009595;28;20398;-61
2023/09/18 04:52:40;;;;;;;;;;;;;;;18.94;71.64;97316.03;5008910;28;20417;-61
2023/09/18 04:55:10;;;;;;;;;;;;;;;18.97;71.32;97314.50;5009950;28;20390;-61
2023/09/18 04:57:38;;;;;;;;;;;;;;;19.01;71.26;97320.78;5025238;28;19939;-61
2023/09/18 05:00:08;;;;;;;;;;;;;;;19.02;71.10;97325.16;5000917;28;19933;-61
2023/09/18 05:02:45;;;;;;;;;;;;;;;19.03;71.20;97319.25;5021170;28;19937;-62
2023/09/18 05:05:13;;;;;;;;;;;;;;;19.04;70.88;97314.53;5020682;28;19933;-62
2023/09/18 05:07:41;;;;;;;;;;;;;;;19.00;70.98;97333.78;5025320;28;19933;-61
2023/09/18 05:10:10;;;;;;;;;;;;;;;19.00;71.22;97338.50;5027665;28;19929;-61
2023/09/18 05:12:39;;;;;;;;;;;;;;;18.96;71.16;97374.25;5019652;28;19933;-61
2023/09/18 05:15:09;;;;;;;;;;;;;;;18.86;71.66;97387.94;5025589;28;20437;-61
2023/09/18 05:17:41;;;;;;;;;;;;;;;18.82;72.61;97368.63;5022383;28;19925;-61
2023/09/18 05:20:13;;;;;;;;;;;;;;;18.88;72.54;97371.81;5023077;28;19936;-61
2023/09/18 05:22:41;;;;;;;;;;;;;;;18.97;72.31;97386.06;5020761;28;19925;-61
2023/09/18 05:25:10;;;;;;;;;;;;;;;19.00;72.21;97374.28;5023260;28;20389;-61
2023/09/18 05:27:43;;;;;;;;;;;;;;;19.06;72.11;97400.28;5019269;28;20347;-62
2023/09/18 05:30:13;;;;;;;;;;;;;;;19.07;71.99;97399.13;5023259;28;20466;-61
2023/09/18 05:32:41;;;;;;;;;;;;;;;19.07;71.92;97416.44;5022805;28;20337;-61
2023/09/18 05:35:10;;;;;;;;;;;;;;;19.08;71.98;97433.75;5024078;28;19933;-61
2023/09/18 05:37:43;;;;;;;;;;;;;;;19.13;71.92;97432.63;5022246;28;19972;-61
2023/09/18 05:40:11;;;;;;;;;;;;;;;19.15;72.10;97436.56;5022809;28;19925;-61
2023/09/18 05:42:42;;;;;;;;;;;;;;;19.18;71.93;97441.31;5029886;28;19925;-61
2023/09/18 05:45:10;;;;;;;;;;;;;;;19.24;71.85;97444.53;5025832;28;20663;-61
2023/09/18 05:47:38;;;;;;;;;;;;;;;19.24;71.69;97439.81;5024684;28;20471;-61
2023/09/18 05:50:07;;;;;;;;;;;;;;;19.28;71.65;97440.63;5004929;28;19933;-61
2023/09/18 05:52:35;;;;;;;;;;;;;;;19.33;71.78;97428.44;5027750;28;19929;-61
2023/09/18 05:55:04;;;;;;;;;;;;;;;19.35;71.71;97431.63;5026159;28;19929;-61
2023/09/18 05:57:32;;;;;;;;;;;;;;;19.38;71.72;97422.59;5022693;28;19929;-61
2023/09/18 06:00:00;;;;;;;;;;;;;;;19.40;71.84;97411.22;5023455;28;19925;-61
2023/09/18 06:02:38;;;;;;;;;;;;;;;19.44;71.80;97403.75;5019900;28;19926;-61
2023/09/18 06:05:06;;;;;;;;;;;;;;;19.47;71.83;97403.00;5023477;28;19936;-66
2023/09/18 06:07:34;;;;;;;;;;;;;;;19.47;71.47;97397.50;5012082;28;20003;-62
2023/09/18 06:10:04;;;;;;;;;;;;;;;19.51;71.51;97392.81;5031403;28;19983;-61
2023/09/18 06:12:31;;;;;;;;;;;;;;;19.48;71.34;97401.81;5023640;28;19928;-61
2023/09/18 06:14:59;;;;;;;;;;;;;;;19.50;71.35;97405.78;5029351;28;19925;-61
2023/09/18 06:17:27;;;;;;;;;;;;;;;19.53;71.51;97399.50;5025784;28;19929;-61
2023/09/18 06:19:55;;;;;;;;;;;;;;;19.56;71.33;97397.97;5028986;28;19929;-61
2023/09/18 06:22:23;;;;;;;;;;;;;;;19.56;71.14;97407.00;5027692;28;19929;-61
2023/09/18 06:24:50;;;;;;;;;;;;;;;19.56;70.94;97403.47;5016260;28;19929;-61
2023/09/18 06:27:20;;;;;;;;;;;;;;;19.58;71.09;97399.13;5025727;28;19929;-61
2023/09/18 06:29:49;;;;;;;;;;;;;;;19.58;71.25;97399.13;5029338;28;19925;-61
2023/09/18 06:32:16;;;;;;;;;;;;;;;19.59;71.47;97402.72;5026618;28;20402;-62
2023/09/18 06:34:47;;;;;;;;;;;;;;;19.59;71.56;97409.00;5029107;28;20971;-61
2023/09/18 06:37:15;;;;;;;;;;;;;;;19.58;71.31;97407.41;5024892;28;19929;-61
2023/09/18 06:39:43;;;;;;;;;;;;;;;19.53;71.33;97404.22;5029982;28;19926;-61
2023/09/18 06:42:11;;;;;;;;;;;;;;;19.61;71.68;97408.66;5029587;28;20447;-61
2023/09/18 06:44:40;;;;;;;;;;;;;;;19.62;71.79;97404.72;5030838;28;19925;-61
2023/09/18 06:47:08;;;;;;;;;;;;;;;19.66;71.79;97402.78;5028935;28;19925;-61
2023/09/18 06:49:36;;;;;;;;;;;;;;;19.70;71.71;97400.81;5016881;28;19943;-61
2023/09/18 06:52:04;;;;;;;;;;;;;;;19.72;71.51;97409.50;5021098;28;19931;-61
2023/09/18 06:54:33;;;;;;;;;;;;;;;19.70;71.61;97406.34;5031697;28;19990;-61
2023/09/18 06:57:01;;;;;;;;;;;;;;;19.74;71.56;97409.91;5028003;28;19940;-61
2023/09/18 06:59:29;;;;;;;;;;;;;;;19.75;71.57;97403.22;5023410;28;19929;-61
2023/09/18 07:01:59;;;;;;;;;;;;;;;19.75;71.48;97403.22;5024307;28;19929;-61
2023/09/18 07:04:27;;;;;;;;;;;;;;;19.76;71.57;97404.00;5018502;28;20432;-61
2023/09/18 07:06:56;;;;;;;;;;;;;;;19.81;71.60;97401.69;5030453;28;19925;-62
2023/09/18 07:09:25;;;;;;;;;;;;;;;19.85;71.65;97402.50;5029387;28;19929;-61
2023/09/18 07:11:53;;;;;;;;;;;;;;;19.85;71.57;97413.53;5026270;28;19925;-62
2023/09/18 07:14:22;;;;;;;;;;;;;;;19.92;71.52;97420.25;5029957;28;19952;-62
2023/09/18 07:16:49;;;;;;;;;;;;;;;19.98;71.64;97410.47;5022151;28;19925;-61
2023/09/18 07:19:19;;;;;;;;;;;;;;;20.02;71.37;97403.78;5022491;28;19948;-61
2023/09/18 07:21:46;;;;;;;;;;;;;;;20.09;71.53;97405.78;5022713;28;20044;-61
2023/09/18 07:24:16;;;;;;;;;;;;;;;20.14;71.03;97406.22;5030390;28;19925;-61
2023/09/18 07:26:45;;;;;;;;;;;;;;;20.23;71.39;97400.31;5028650;28;19925;-61
2023/09/18 07:29:14;;;;;;;;;;;;;;;20.29;71.54;97407.06;5028535;28;19925;-61
2023/09/18 07:31:42;;;;;;;;;;;;;;;20.35;71.22;97391.72;5016613;28;19941;-61
2023/09/18 07:34:10;;;;;;;;;;;;;;;20.41;70.73;97387.41;5030454;28;19929;-61
2023/09/18 07:36:42;;;;;;;;;;;;;;;20.48;70.44;97377.59;5025464;28;20031;-62
2023/09/18 07:39:09;;;;;;;;;;;;;;;20.52;69.95;97372.91;5023661;28;19932;-61
2023/09/18 07:41:37;;;;;;;;;;;;;;;20.56;69.21;97373.66;5028443;28;19933;-61
2023/09/18 07:44:05;;;;;;;;;;;;;;;20.59;68.87;97370.94;5030003;28;19928;-62
2023/09/18 07:46:33;;;;;;;;;;;;;;;20.65;68.84;97374.09;5011096;28;19976;-62
2023/09/18 07:49:00;;;;;;;;;;;;;;;20.70;68.76;97384.75;5031080;28;19967;-61
2023/09/18 07:51:29;;;;;;;;;;;;;;;20.72;67.93;97396.22;5029089;28;19928;-61
2023/09/18 07:53:59;;;;;;;;;;;;;;;20.73;67.74;97395.03;5024307;28;19937;-61
2023/09/18 07:56:27;;;;;;;;;;;;;;;20.74;67.93;97388.31;5024178;28;19926;-61
2023/09/18 07:58:55;;;;;;;;;;;;;;;20.79;67.98;97390.69;5029415;28;19933;-61
2023/09/18 08:01:23;;;;;;;;;;;;;;;20.84;67.78;97406.88;5024557;28;19936;-61
2023/09/18 08:03:51;;;;;;;;;;;;;;;20.87;67.88;97419.88;5027935;28;20269;-61
2023/09/18 08:06:19;;;;;;;;;;;;;;;20.92;67.71;97414.00;5024169;28;19948;-62
2023/09/18 08:08:47;;;;;;;;;;;;;;;20.97;67.79;97412.03;5024665;28;20018;-61
2023/09/18 08:11:16;;;;;;;;;;;;;;;21.01;67.12;97415.59;5029832;28;19925;-62
2023/09/18 08:13:44;;;;;;;;;;;;;;;21.06;67.25;97401.41;5031390;28;19929;-62
2023/09/18 08:16:12;;;;;;;;;;;;;;;21.13;66.86;97409.69;5024560;28;19944;-62
2023/09/18 08:18:41;;;;;;;;;;;;;;;21.18;66.92;97414.81;5031875;28;20353;-62
2023/09/18 08:21:10;;;;;;;;;;;;;;;21.24;66.90;97416.00;5020785;28;20490;-62
2023/09/18 08:23:38;;;;;;;;;;;;;;;21.29;66.61;97404.56;5023217;28;19925;-62
2023/09/18 08:26:06;;;;;;;;;;;;;;;21.34;66.62;97406.19;5021905;28;19995;-62
2023/09/18 08:28:38;;;;;;;;;;;;;;;21.37;66.32;97397.91;5029447;28;19933;-62
2023/09/18 08:31:07;;;;;;;;;;;;;;;21.43;65.68;97398.28;5031192;28;19987;-62
2023/09/18 08:33:36;;;;;;;;;;;;;;;21.47;65.70;97399.09;5030390;28;20000;-61
2023/09/18 08:36:04;;;;;;;;;;;;;;;21.51;65.88;97410.13;5031088;28;19929;-62
2023/09/18 08:38:32;;;;;;;;;;;;;;;21.57;65.67;97414.06;5030380;28;20448;-61
2023/09/18 08:40:59;;;;;;;;;;;;;;;21.62;65.29;97419.97;5027253;28;19925;-62
2023/09/18 08:43:28;;;;;;;;;;;;;;;21.67;65.06;97421.56;5029942;28;19932;-61
2023/09/18 08:46:01;;;;;;;;;;;;;;;21.71;64.85;97416.81;5030604;28;19931;-62
2023/09/18 08:48:34;;;;;;;;;;;;;;;21.74;64.62;97418.81;5029676;28;19932;-61
2023/09/18 08:51:02;;;;;;;;;;;;;;;21.78;63.92;97416.81;5029045;28;20127;-61
2023/09/18 08:53:30;;;;;;;;;;;;;;;21.84;63.68;97418.00;5022190;28;19933;-69
2023/09/18 08:56:01;;;;;;;;;;;;;;;21.87;63.06;97419.16;5023203;28;20433;-61
2023/09/18 08:58:29;;;;;;;;;;;;;;;21.91;63.48;97417.97;5028058;28;19929;-61
2023/09/18 09:00:59;;;;;;;;;;;;;;;21.95;62.70;97418.78;5034392;28;19925;-61
2023/09/18 09:03:27;;;;;;;;;;;;;;;21.98;62.22;97423.50;5029217;28;20008;-61
2023/09/18 09:05:55;;;;;;;;;;;;;;;22.03;62.20;97413.22;5025645;28;19937;-62
2023/09/18 09:08:23;;;;;;;;;;;;;;;22.04;61.86;97414.78;5030294;28;20786;-62
2023/09/18 09:10:51;;;;;;;;;;;;;;;22.05;62.02;97408.06;5026891;28;20337;-62
2023/09/18 09:13:24;;;;;;;;;;;;;;;22.05;61.00;97410.81;5029526;28;19929;-62
2023/09/18 09:16:08;;;;;;;;;;;;;;;22.05;60.63;97411.66;5017831;28;19936;-62
2023/09/18 09:18:35;;;;;;;;;;;;;;;22.09;60.83;97414.38;5028414;28;20322;-62
2023/09/18 09:21:04;;;;;;;;;;;;;;;22.10;60.99;97405.69;5018690;28;19925;-62
2023/09/18 09:23:45;;;;;;;;;;;;;;;22.14;60.01;97395.41;5020173;28;19925;-62
2023/09/18 09:26:14;;;;;;;;;;;;;;;22.18;59.74;97406.50;5025477;28;19929;-62
2023/09/18 09:28:43;;;;;;;;;;;;;;;22.21;59.89;97392.66;5030183;28;20393;-62
2023/09/18 09:31:13;;;;;;;;;;;;;;;22.25;59.43;97386.28;5027549;28;20371;-62
2023/09/18 09:33:42;;;;;;;;;;;;;;;22.29;58.79;97387.88;5024940;28;19928;-62
2023/09/18 09:36:09;;;;;;;;;;;;;;;22.33;59.15;97380.34;5029321;28;20418;-63
2023/09/18 09:38:39;;;;;;;;;;;;;;;22.39;59.58;97384.28;5027960;28;19925;-62
2023/09/18 09:41:09;;;;;;;;;;;;;;;22.47;58.98;97380.25;5025531;28;19925;-63
2023/09/18 09:43:37;;;;;;;;;;;;;;;22.53;57.80;97375.13;5029401;28;19925;-63
2023/09/18 09:46:05;;;;;;;;;;;;;;;22.61;57.67;97384.16;5028757;28;20398;-63
2023/09/18 09:48:34;;;;;;;;;;;;;;;22.67;56.91;97385.31;5019365;28;19925;-64
2023/09/18 09:51:03;;;;;;;;;;;;;;;22.70;56.66;97390.84;5027574;28;20294;-64
2023/09/18 09:53:46;;;;;;;;;;;;;;;22.75;56.98;97403.47;5028698;28;19934;-63
2023/09/18 09:56:21;;;;;;;;;;;;;;;22.81;56.91;97404.63;5025497;28;19971;-64
2023/09/18 09:59:03;;;;;;;;;;;;;;;22.82;56.44;97406.19;5017138;28;19932;-64
2023/09/18 10:01:31;;;;;;;;;;;;;;;22.85;56.11;97415.66;5024738;28;19929;-64
2023/09/18 10:04:01;;;;;;;;;;;;;;;22.88;55.84;97412.91;5027572;28;19925;-63
2023/09/18 10:06:30;;;;;;;;;;;;;;;22.93;56.22;97404.19;5022814;28;19933;-64
2023/09/18 10:08:57;;;;;;;;;;;;;;;22.95;56.62;97406.53;5017225;28;20479;-63
2023/09/18 10:11:25;;;;;;;;;;;;;;;22.93;56.35;97406.94;5027175;28;19925;-64
2023/09/18 10:13:56;;;;;;;;;;;;;;;22.92;57.04;97408.16;5029616;28;20375;-64
2023/09/18 10:16:25;;;;;;;;;;;;;;;22.92;56.14;97402.59;5030803;28;20298;-64
2023/09/18 10:18:56;;;;;;;;;;;;;;;22.94;56.97;97404.97;5027386;28;19932;-64
2023/09/18 10:21:31;;;;;;;;;;;;;;;22.94;56.98;97405.75;5025034;28;20027;-64
2023/09/18 10:24:00;;;;;;;;;;;;;;;22.94;57.29;97411.28;5025592;28;19932;-63
2023/09/18 10:26:29;;;;;;;;;;;;;;;22.95;56.82;97418.41;5029966;28;20332;-63
2023/09/18 10:28:59;;;;;;;;;;;;;;;22.97;56.26;97420.78;5021699;28;19929;-63
2023/09/18 10:31:28;;;;;;;;;;;;;;;22.95;56.26;97423.94;5027294;28;19929;-63
2023/09/18 10:33:56;;;;;;;;;;;;;;;22.99;55.71;97441.34;5028224;28;19940;-63
2023/09/18 10:36:25;;;;;;;;;;;;;;;23.02;55.44;97439.75;5031885;28;20338;-61
2023/09/18 10:38:54;;;;;;;;;;;;;;;23.02;54.80;97433.44;5031258;28;19925;-62
2023/09/18 10:41:22;;;;;;;;;;;;;;;23.02;54.73;97434.22;5023086;28;20016;-62
2023/09/18 10:43:52;;;;;;;;;;;;;;;23.03;53.94;97437.78;5030343;28;19929;-62
2023/09/18 10:46:20;;;;;;;;;;;;;;;23.03;55.24;97440.53;5032779;28;20382;-62
2023/09/18 10:48:47;;;;;;;;;;;;;;;23.02;54.66;97448.06;5027157;28;21241;-62
2023/09/18 10:51:15;;;;;;;;;;;;;;;23.01;55.15;97452.03;5029505;28;19925;-62
2023/09/18 10:53:43;;;;;;;;;;;;;;;22.99;55.02;97446.88;5031165;28;19929;-63
2023/09/18 10:56:12;;;;;;;;;;;;;;;23.00;54.16;97459.53;5024457;28;19929;-63
2023/09/18 10:58:41;;;;;;;;;;;;;;;23.00;54.59;97448.44;5020092;28;19936;-63
2023/09/18 11:01:11;;;;;;;;;;;;;;;23.00;55.56;97444.91;5017872;28;19935;-63
2023/09/18 11:03:38;;;;;;;;;;;;;;;22.98;55.71;97452.84;5023198;28;19925;-63
2023/09/18 11:06:09;;;;;;;;;;;;;;;22.98;54.14;97439.78;5019411;28;20359;-64
2023/09/18 11:08:44;;;;;;;;;;;;;;;22.98;54.85;97444.53;5022795;28;19935;-64
2023/09/18 11:11:14;;;;;;;;;;;;;;;22.99;54.55;97457.16;5020717;28;19926;-61
2023/09/18 11:13:42;;;;;;;;;;;;;;;22.96;55.19;97458.00;5026695;28;19933;-61
2023/09/18 11:16:18;;;;;;;;;;;;;;;22.94;54.44;97474.22;5025058;28;19925;-61
2023/09/18 11:18:50;;;;;;;;;;;;;;;22.92;53.98;97474.63;5024127;28;19925;-61
2023/09/18 11:21:25;;;;;;;;;;;;;;;22.91;54.71;97481.38;5028484;28;20014;-61
2023/09/18 11:23:58;;;;;;;;;;;;;;;22.91;54.22;97486.91;5023489;28;19940;-62
2023/09/18 11:26:31;;;;;;;;;;;;;;;22.92;53.13;97484.91;5022377;28;19978;-61
2023/09/18 11:29:00;;;;;;;;;;;;;;;22.89;54.25;97483.72;5022197;28;19925;-61
2023/09/18 11:31:44;;;;;;;;;;;;;;;22.89;51.79;97492.03;5024549;28;19929;-61
2023/09/18 11:34:12;;;;;;;;;;;;;;;22.85;52.46;97485.72;5027247;28;19934;-61
2023/09/18 11:36:40;;;;;;;;;;;;;;;22.84;51.63;97484.13;5028599;28;19929;-61
2023/09/18 11:39:09;;;;;;;;;;;;;;;22.80;52.06;97477.84;5028888;28;19925;-61
2023/09/18 11:41:38;;;;;;;;;;;;;;;22.81;51.35;97490.47;5025460;28;19976;-61
2023/09/18 11:44:23;;;;;;;;;;;;;;;22.82;51.43;97491.28;5024265;28;19935;-61
2023/09/18 11:46:52;;;;;;;;;;;;;;;22.82;51.00;97496.81;5024030;28;20363;-61
2023/09/18 11:49:21;;;;;;;;;;;;;;;22.81;50.83;97500.78;5025507;28;19925;-61
2023/09/18 11:51:49;;;;;;;;;;;;;;;22.81;51.03;97498.00;5028234;28;19926;-61
2023/09/18 11:54:17;;;;;;;;;;;;;;;22.81;51.19;97509.09;5025412;28;20397;-62
2023/09/18 11:56:46;;;;;;;;;;;;;;;22.80;50.49;97511.06;5029223;28;20655;-61
2023/09/18 11:59:14;;;;;;;;;;;;;;;22.76;50.94;97518.59;5019977;28;20435;-61
2023/09/18 12:01:46;;;;;;;;;;;;;;;22.74;51.16;97524.53;5019734;28;19929;-61
2023/09/18 12:04:14;;;;;;;;;;;;;;;22.70;51.86;97525.75;5028697;28;20387;-63
2023/09/18 12:06:42;;;;;;;;;;;;;;;22.68;52.85;97533.63;5029225;28;19925;-63
2023/09/18 12:09:12;;;;;;;;;;;;;;;22.65;53.81;97538.00;5016740;28;20043;-63
2023/09/18 12:11:42;;;;;;;;;;;;;;;22.61;54.36;97545.53;5026853;28;19925;-63
2023/09/18 12:14:12;;;;;;;;;;;;;;;22.59;54.74;97549.91;5023789;28;20636;-63
2023/09/18 12:16:40;;;;;;;;;;;;;;;22.54;56.07;97564.94;5024566;28;19933;-63
2023/09/18 12:19:08;;;;;;;;;;;;;;;22.42;55.44;97562.56;5026168;28;19925;-62
2023/09/18 12:21:41;;;;;;;;;;;;;;;22.32;56.18;97566.13;5023378;28;19929;-63
2023/09/18 12:24:13;;;;;;;;;;;;;;;22.22;57.14;97571.31;5021517;28;20637;-63
2023/09/18 12:26:41;;;;;;;;;;;;;;;22.14;58.33;97564.19;5008427;28;19929;-63
2023/09/18 12:29:10;;;;;;;;;;;;;;;22.05;59.40;97576.78;5022650;28;20448;-63
2023/09/18 12:31:38;;;;;;;;;;;;;;;21.97;60.25;97582.34;5022710;28;19971;-62
2023/09/18 12:34:14;;;;;;;;;;;;;;;21.83;61.65;97587.06;5025413;28;19925;-63
2023/09/18 12:36:43;;;;;;;;;;;;;;;21.76;62.04;97590.63;5028903;28;19929;-63
2023/09/18 12:39:10;;;;;;;;;;;;;;;21.68;63.34;97591.81;5028162;28;19932;-63
2023/09/18 12:41:38;;;;;;;;;;;;;;;21.51;64.71;97587.00;5026787;28;19925;-63
2023/09/18 12:44:06;;;;;;;;;;;;;;;21.36;66.02;97597.22;5009617;28;19972;-63
2023/09/18 12:46:36;;;;;;;;;;;;;;;21.23;66.81;97588.47;5028081;28;19929;-63
2023/09/18 12:49:17;;;;;;;;;;;;;;;21.15;67.99;97587.66;5027861;28;19975;-63
2023/09/18 12:51:46;;;;;;;;;;;;;;;21.08;68.26;97593.16;5026172;28;19960;-63
2023/09/18 12:54:15;;;;;;;;;;;;;;;20.99;69.15;97589.19;5022537;28;20292;-63
2023/09/18 12:56:43;;;;;;;;;;;;;;;20.91;69.63;97589.13;5030115;28;20417;-63
2023/09/18 12:59:12;;;;;;;;;;;;;;;20.81;70.00;97581.59;5028107;28;19925;-65
2023/09/18 13:01:48;;;;;;;;;;;;;;;20.78;70.52;97576.06;5023448;28;19929;-63